Time;durP1;ratioP1;P1;durP2;ratioP2;P2;SDS_P1;SDS_P2;PMS_P1;PMS_P2;Temp;Humidity;BMP_temperature;BMP_pressure;BME280_temperature;BME280_humidity;BME280_pressure;Samples;Min_cycle;Max_cycle;Signal;HPM_P1;HPM_P2
2024/02/20 00:00:00;;;;;;;1.47;1.37;;;7.40;99.90;;;;;;5015298;28;20276;-67
2024/02/20 00:02:27;;;;;;;1.00;1.00;;;7.40;99.90;;;;;;4994793;28;20199;-70
2024/02/20 00:04:54;;;;;;;1.40;1.30;;;7.50;99.90;;;;;;5018325;28;20272;-68
2024/02/20 00:07:21;;;;;;;1.00;1.00;;;7.50;99.90;;;;;;5006476;28;20306;-68
2024/02/20 00:09:48;;;;;;;1.90;1.10;;;7.50;99.90;;;;;;5014052;28;20184;-68
2024/02/20 00:12:16;;;;;;;2.00;0.90;;;7.50;99.90;;;;;;5008129;28;20289;-69
2024/02/20 00:14:45;;;;;;;1.67;1.20;;;7.50;99.90;;;;;;5015739;28;20198;-69
2024/02/20 00:17:12;;;;;;;1.37;1.10;;;7.50;99.90;;;;;;5008798;28;20563;-69
2024/02/20 00:19:39;;;;;;;1.30;1.20;;;7.50;99.90;;;;;;5012241;28;20616;-70
2024/02/20 00:22:06;;;;;;;1.17;1.17;;;7.50;99.90;;;;;;5010340;28;20286;-70
2024/02/20 00:24:33;;;;;;;1.63;1.50;;;7.60;99.90;;;;;;5012406;28;20191;-69
2024/02/20 00:27:00;;;;;;;1.10;1.10;;;7.60;99.90;;;;;;5008641;28;20258;-69
2024/02/20 00:29:27;;;;;;;0.80;0.80;;;7.70;99.90;;;;;;5010946;28;20207;-69
2024/02/20 00:31:55;;;;;;;1.17;1.03;;;7.70;99.90;;;;;;5009711;28;20203;-69
2024/02/20 00:34:23;;;;;;;1.00;1.00;;;7.70;99.90;;;;;;5011504;28;20278;-69
2024/02/20 00:36:52;;;;;;;1.70;1.10;;;7.70;99.90;;;;;;5008549;28;20256;-69
2024/02/20 00:39:19;;;;;;;1.00;1.00;;;7.70;99.90;;;;;;4992682;28;20318;-69
2024/02/20 00:41:47;;;;;;;1.37;1.07;;;7.80;99.90;;;;;;5015358;28;20198;-69
2024/02/20 00:44:14;;;;;;;1.30;1.20;;;7.70;99.90;;;;;;4992092;28;20567;-69
2024/02/20 00:46:41;;;;;;;0.90;0.90;;;7.70;99.90;;;;;;5013666;28;20230;-68
2024/02/20 00:49:10;;;;;;;1.10;1.00;;;7.70;99.90;;;;;;5009701;28;20622;-69
2024/02/20 00:51:37;;;;;;;1.47;1.20;;;7.60;99.90;;;;;;5010182;28;20230;-68
2024/02/20 00:54:04;;;;;;;1.00;1.00;;;7.70;99.90;;;;;;5009746;28;20207;-69
2024/02/20 00:56:31;;;;;;;1.23;1.00;;;7.70;99.90;;;;;;5012375;28;20195;-70
2024/02/20 00:58:58;;;;;;;0.80;0.80;;;7.70;99.90;;;;;;4998409;28;20229;-70
2024/02/20 01:01:26;;;;;;;0.83;0.83;;;7.70;99.90;;;;;;4993143;28;20285;-70
2024/02/20 01:03:53;;;;;;;0.80;0.80;;;7.70;99.90;;;;;;5015439;28;20237;-68
2024/02/20 01:06:21;;;;;;;1.37;1.27;;;7.70;99.90;;;;;;5013530;28;20259;-69
2024/02/20 01:08:48;;;;;;;0.90;0.90;;;7.80;99.90;;;;;;5008759;28;20596;-68
2024/02/20 01:11:15;;;;;;;1.07;1.07;;;7.80;99.90;;;;;;5018718;28;20200;-69
2024/02/20 01:13:48;;;;;;;1.40;1.30;;;7.80;99.90;;;;;;5009552;28;20288;-69
2024/02/20 01:16:17;;;;;;;1.10;1.00;;;7.80;99.90;;;;;;5009630;28;20306;-68
2024/02/20 01:18:44;;;;;;;0.67;0.67;;;7.80;99.90;;;;;;5009642;28;20978;-68
2024/02/20 01:21:12;;;;;;;1.00;0.97;;;7.80;99.90;;;;;;5003131;28;20632;-68
2024/02/20 01:23:40;;;;;;;0.83;0.83;;;7.80;99.90;;;;;;5007204;28;20202;-68
2024/02/20 01:26:07;;;;;;;0.80;0.77;;;7.80;99.90;;;;;;5008889;28;20223;-69
2024/02/20 01:28:34;;;;;;;0.53;0.53;;;7.80;99.90;;;;;;5011905;28;20210;-69
2024/02/20 01:31:02;;;;;;;0.63;0.63;;;7.80;99.90;;;;;;5013004;28;20194;-70
2024/02/20 01:33:29;;;;;;;0.50;0.50;;;7.70;99.90;;;;;;5007481;28;20242;-69
2024/02/20 01:35:56;;;;;;;0.80;0.80;;;7.70;99.90;;;;;;5013657;28;20666;-69
2024/02/20 01:38:23;;;;;;;0.60;0.60;;;7.70;99.90;;;;;;5011194;28;20542;-69
2024/02/20 01:40:52;;;;;;;0.50;0.50;;;7.70;99.90;;;;;;5015957;28;20224;-69
2024/02/20 01:43:19;;;;;;;0.60;0.60;;;7.70;99.90;;;;;;5008400;28;20192;-69
2024/02/20 01:45:46;;;;;;;0.60;0.60;;;7.70;99.90;;;;;;5011381;28;20266;-70
2024/02/20 01:48:15;;;;;;;0.53;0.53;;;7.70;99.90;;;;;;5008964;28;20202;-69
2024/02/20 01:50:43;;;;;;;0.53;0.53;;;7.70;99.90;;;;;;4993942;28;20370;-69
2024/02/20 01:53:10;;;;;;;0.63;0.60;;;7.70;99.90;;;;;;4993675;28;20203;-69
2024/02/20 01:55:38;;;;;;;0.70;0.60;;;7.60;99.90;;;;;;5010793;28;20258;-69
2024/02/20 01:58:07;;;;;;;0.60;0.60;;;7.70;99.90;;;;;;4996577;28;20224;-69
2024/02/20 02:00:34;;;;;;;0.60;0.60;;;7.70;99.90;;;;;;4992245;28;20219;-67
2024/02/20 02:03:02;;;;;;;1.97;0.63;;;7.70;99.90;;;;;;5018612;28;20240;-68
2024/02/20 02:05:30;;;;;;;0.77;0.57;;;7.70;99.90;;;;;;5006632;28;20265;-68
2024/02/20 02:07:59;;;;;;;0.67;0.67;;;7.70;99.90;;;;;;5009627;28;20215;-69
2024/02/20 02:10:26;;;;;;;0.60;0.60;;;7.70;99.90;;;;;;5023121;28;20225;-68
2024/02/20 02:12:53;;;;;;;0.90;0.60;;;7.70;99.90;;;;;;5010555;28;20266;-68
2024/02/20 02:15:21;;;;;;;0.50;0.50;;;7.70;99.90;;;;;;5013324;28;20552;-68
2024/02/20 02:17:48;;;;;;;0.63;0.63;;;7.80;99.90;;;;;;5013171;28;20199;-68
2024/02/20 02:20:16;;;;;;;0.60;0.60;;;7.70;99.90;;;;;;5005397;28;20207;-69
2024/02/20 02:22:43;;;;;;;0.87;0.60;;;7.80;99.90;;;;;;5012968;28;20199;-69
2024/02/20 02:25:10;;;;;;;1.37;0.80;;;7.90;99.90;;;;;;5016710;28;20554;-69
2024/02/20 02:27:39;;;;;;;0.80;0.80;;;7.80;99.90;;;;;;5011887;28;20211;-69
2024/02/20 02:30:09;;;;;;;3.20;0.87;;;7.80;99.90;;;;;;5004892;28;20214;-69
2024/02/20 02:32:36;;;;;;;1.13;0.70;;;7.80;99.90;;;;;;5020258;28;20206;-69
2024/02/20 02:35:03;;;;;;;0.70;0.70;;;7.80;99.90;;;;;;5004291;28;20211;-69
2024/02/20 02:37:31;;;;;;;1.00;0.53;;;7.90;99.90;;;;;;5013824;28;20290;-70
2024/02/20 02:39:58;;;;;;;0.90;0.80;;;7.80;99.90;;;;;;5021325;28;20212;-68
2024/02/20 02:42:25;;;;;;;0.70;0.70;;;7.80;99.90;;;;;;5017817;28;20261;-68
2024/02/20 02:44:53;;;;;;;0.60;0.60;;;7.80;99.90;;;;;;5014860;28;20257;-68
2024/02/20 02:47:20;;;;;;;0.60;0.60;;;7.80;99.90;;;;;;5019130;28;20282;-69
2024/02/20 02:49:47;;;;;;;1.37;0.70;;;7.80;99.90;;;;;;5013442;28;20191;-67
2024/02/20 02:52:16;;;;;;;0.60;0.60;;;7.80;99.90;;;;;;5022984;28;20310;-69
2024/02/20 02:54:43;;;;;;;0.60;0.60;;;7.90;99.90;;;;;;5013266;28;20278;-69
2024/02/20 02:57:11;;;;;;;0.70;0.70;;;7.90;99.90;;;;;;5020327;28;20733;-70
2024/02/20 02:59:38;;;;;;;0.70;0.70;;;7.90;99.90;;;;;;5010492;28;20226;-68
2024/02/20 03:02:10;;;;;;;1.30;0.50;;;8.00;99.90;;;;;;5020163;28;20199;-69
2024/02/20 03:04:37;;;;;;;0.70;0.70;;;7.90;99.90;;;;;;5012844;28;20246;-68
2024/02/20 03:07:04;;;;;;;0.50;0.50;;;8.00;99.90;;;;;;5017413;28;20231;-69
2024/02/20 03:09:31;;;;;;;0.60;0.60;;;8.00;99.90;;;;;;5013089;28;20208;-69
2024/02/20 03:11:58;;;;;;;0.83;0.77;;;8.00;99.90;;;;;;5022503;28;20203;-70
2024/02/20 03:14:26;;;;;;;0.67;0.50;;;8.00;99.90;;;;;;5012548;28;20203;-70
2024/02/20 03:16:53;;;;;;;0.60;0.60;;;7.90;99.90;;;;;;4995131;28;20294;-69
2024/02/20 03:19:21;;;;;;;0.43;0.43;;;8.00;99.90;;;;;;5020190;28;20199;-69
2024/02/20 03:21:48;;;;;;;0.40;0.40;;;8.00;99.90;;;;;;5015983;28;20254;-69
2024/02/20 03:24:15;;;;;;;0.40;0.40;;;7.90;99.90;;;;;;5012346;28;20215;-68
2024/02/20 03:26:43;;;;;;;0.37;0.37;;;8.00;99.90;;;;;;5011573;28;20566;-68
2024/02/20 03:29:10;;;;;;;0.30;0.30;;;7.90;99.90;;;;;;4994573;28;20678;-69
2024/02/20 03:31:37;;;;;;;0.40;0.40;;;8.00;99.90;;;;;;5015291;28;20241;-68
2024/02/20 03:34:04;;;;;;;0.40;0.40;;;8.00;99.90;;;;;;5001422;28;20723;-68
2024/02/20 03:36:32;;;;;;;0.40;0.40;;;8.00;99.90;;;;;;4998713;28;20199;-68
2024/02/20 03:38:59;;;;;;;0.30;0.30;;;7.90;99.90;;;;;;5005956;28;20219;-69
2024/02/20 03:41:26;;;;;;;0.30;0.30;;;7.90;99.90;;;;;;5002627;28;20630;-69
2024/02/20 03:43:53;;;;;;;0.30;0.30;;;7.90;99.90;;;;;;5017534;28;20740;-69
2024/02/20 03:46:20;;;;;;;0.30;0.30;;;8.00;99.90;;;;;;5011956;28;20239;-68
2024/02/20 03:48:47;;;;;;;0.30;0.30;;;8.00;99.90;;;;;;4999644;28;20203;-69
2024/02/20 03:51:15;;;;;;;0.47;0.47;;;8.00;99.90;;;;;;5005879;28;20250;-68
2024/02/20 03:53:43;;;;;;;0.30;0.30;;;8.00;99.90;;;;;;5011639;28;20223;-69
2024/02/20 03:56:12;;;;;;;0.30;0.30;;;8.00;99.90;;;;;;5009709;28;21174;-68
2024/02/20 03:58:39;;;;;;;0.40;0.40;;;8.00;99.90;;;;;;5023987;28;20226;-68
2024/02/20 04:01:07;;;;;;;0.30;0.30;;;8.00;99.90;;;;;;5012346;28;20317;-68
2024/02/20 04:03:34;;;;;;;0.60;0.60;;;8.00;99.90;;;;;;5018158;28;20264;-68
2024/02/20 04:06:01;;;;;;;0.30;0.30;;;8.10;99.90;;;;;;5011545;28;20626;-68
2024/02/20 04:08:28;;;;;;;0.50;0.50;;;8.00;99.90;;;;;;5019765;28;20193;-68
2024/02/20 04:10:57;;;;;;;0.30;0.30;;;8.00;99.90;;;;;;4994881;28;20613;-68
2024/02/20 04:13:25;;;;;;;0.30;0.30;;;8.10;99.90;;;;;;5016173;28;20191;-68
2024/02/20 04:15:52;;;;;;;0.43;0.43;;;8.10;99.90;;;;;;5011878;28;20196;-69
2024/02/20 04:18:19;;;;;;;0.50;0.50;;;8.10;99.90;;;;;;5016194;28;20201;-69
2024/02/20 04:20:46;;;;;;;0.37;0.37;;;8.20;99.90;;;;;;5011238;28;20215;-69
2024/02/20 04:23:13;;;;;;;0.40;0.40;;;8.20;99.90;;;;;;5017774;28;20285;-69
2024/02/20 04:25:41;;;;;;;0.60;0.60;;;8.20;99.90;;;;;;5012602;28;20203;-69
2024/02/20 04:28:09;;;;;;;0.37;0.37;;;8.20;99.90;;;;;;4993470;28;20269;-69
2024/02/20 04:30:39;;;;;;;0.40;0.40;;;8.20;99.90;;;;;;4994426;28;20189;-70
2024/02/20 04:33:06;;;;;;;0.40;0.40;;;8.20;99.90;;;;;;4991994;28;20578;-70
2024/02/20 04:35:33;;;;;;;0.50;0.50;;;8.10;99.90;;;;;;5011361;28;20273;-70
2024/02/20 04:38:00;;;;;;;0.40;0.40;;;8.10;99.90;;;;;;4994532;28;20740;-69
2024/02/20 04:40:27;;;;;;;0.37;0.37;;;8.10;99.90;;;;;;5011834;28;20315;-67
2024/02/20 04:42:54;;;;;;;0.50;0.50;;;8.20;99.90;;;;;;5012391;28;20355;-68
2024/02/20 04:45:23;;;;;;;0.50;0.50;;;8.20;99.90;;;;;;5011617;28;20194;-69
2024/02/20 04:47:50;;;;;;;0.43;0.43;;;8.20;99.90;;;;;;5019455;28;20191;-68
2024/02/20 04:50:18;;;;;;;0.60;0.60;;;8.20;99.90;;;;;;5011989;28;20252;-68
2024/02/20 04:52:45;;;;;;;0.60;0.60;;;8.20;99.90;;;;;;5008324;28;20199;-68
2024/02/20 04:55:12;;;;;;;0.43;0.43;;;8.20;99.90;;;;;;5017220;28;20199;-68
2024/02/20 04:57:39;;;;;;;0.43;0.43;;;8.10;99.90;;;;;;5009808;28;20274;-68
2024/02/20 05:00:10;;;;;;;0.50;0.50;;;8.20;99.90;;;;;;4992634;28;20622;-68
2024/02/20 05:02:40;;;;;;;0.60;0.60;;;8.20;99.90;;;;;;5010878;28;20242;-68
2024/02/20 05:05:08;;;;;;;0.63;0.60;;;8.20;99.90;;;;;;5010879;28;20655;-68
2024/02/20 05:07:35;;;;;;;0.50;0.50;;;8.20;99.90;;;;;;4992888;28;20741;-69
2024/02/20 05:10:05;;;;;;;0.50;0.50;;;8.20;99.90;;;;;;4992290;28;20286;-69
2024/02/20 05:12:32;;;;;;;0.50;0.50;;;8.20;99.90;;;;;;5009192;28;20201;-68
2024/02/20 05:15:00;;;;;;;0.40;0.40;;;8.20;99.90;;;;;;5014258;28;20270;-69
2024/02/20 05:17:27;;;;;;;0.43;0.43;;;8.20;99.90;;;;;;4992958;28;20549;-68
2024/02/20 05:19:55;;;;;;;0.80;0.60;;;8.20;99.90;;;;;;5016207;28;20229;-68
2024/02/20 05:22:22;;;;;;;0.60;0.60;;;8.20;99.90;;;;;;5011145;28;20306;-69
2024/02/20 05:24:50;;;;;;;0.37;0.37;;;8.20;99.90;;;;;;5011879;28;20275;-70
2024/02/20 05:27:17;;;;;;;0.40;0.40;;;8.20;99.90;;;;;;5009354;28;20209;-70
2024/02/20 05:29:44;;;;;;;0.40;0.40;;;8.20;99.90;;;;;;5012606;28;20254;-70
2024/02/20 05:32:11;;;;;;;0.50;0.50;;;8.20;99.90;;;;;;5010572;28;20192;-69
2024/02/20 05:34:38;;;;;;;0.57;0.57;;;8.20;99.90;;;;;;5010691;28;20270;-69
2024/02/20 05:37:06;;;;;;;0.67;0.67;;;8.30;99.90;;;;;;5011172;28;20676;-69
2024/02/20 05:39:34;;;;;;;0.70;0.70;;;8.30;99.90;;;;;;5014038;28;20230;-69
2024/02/20 05:42:01;;;;;;;1.80;0.87;;;8.30;99.90;;;;;;5012723;28;20230;-70
2024/02/20 05:44:28;;;;;;;1.83;0.67;;;8.30;99.90;;;;;;5009339;28;20279;-69
2024/02/20 05:46:55;;;;;;;0.60;0.60;;;8.30;99.90;;;;;;5022278;28;20209;-69
2024/02/20 05:49:22;;;;;;;0.57;0.50;;;8.30;99.90;;;;;;5014142;28;20233;-69
2024/02/20 05:51:49;;;;;;;0.40;0.40;;;8.30;99.90;;;;;;5014089;28;20218;-69
2024/02/20 05:54:18;;;;;;;1.07;0.60;;;8.30;99.90;;;;;;4997716;28;20261;-69
2024/02/20 05:56:45;;;;;;;0.60;0.60;;;8.30;99.90;;;;;;5012805;28;20259;-69
2024/02/20 05:59:12;;;;;;;0.37;0.37;;;8.30;99.90;;;;;;5014740;28;20681;-69
2024/02/20 06:01:39;;;;;;;0.50;0.50;;;8.30;99.90;;;;;;4995891;28;20302;-69
2024/02/20 06:04:06;;;;;;;0.50;0.50;;;8.30;99.90;;;;;;5010284;28;20730;-69
2024/02/20 06:06:34;;;;;;;0.40;0.40;;;8.30;99.90;;;;;;4992432;28;20211;-69
2024/02/20 06:09:02;;;;;;;0.63;0.63;;;8.30;99.90;;;;;;5025450;28;20283;-70
2024/02/20 06:11:31;;;;;;;0.80;0.50;;;8.30;99.90;;;;;;5015927;28;20203;-70
2024/02/20 06:13:58;;;;;;;0.40;0.40;;;8.30;99.90;;;;;;5010512;28;20195;-70
2024/02/20 06:16:25;;;;;;;0.60;0.60;;;8.30;99.90;;;;;;5013989;28;20234;-69
2024/02/20 06:18:53;;;;;;;0.50;0.50;;;8.30;99.90;;;;;;5015300;28;20203;-68
2024/02/20 06:21:22;;;;;;;0.63;0.50;;;8.30;99.90;;;;;;5018535;28;20667;-69
2024/02/20 06:23:49;;;;;;;0.40;0.40;;;8.30;99.90;;;;;;5012983;28;20196;-68
2024/02/20 06:26:17;;;;;;;0.40;0.40;;;8.30;99.90;;;;;;5017367;28;20191;-68
2024/02/20 06:28:46;;;;;;;0.43;0.43;;;8.30;99.90;;;;;;4996262;28;20291;-68
2024/02/20 06:31:13;;;;;;;0.40;0.40;;;8.30;99.90;;;;;;5016416;28;20183;-67
2024/02/20 06:33:42;;;;;;;0.50;0.50;;;8.30;99.90;;;;;;5011872;28;20228;-68
2024/02/20 06:36:09;;;;;;;2.10;0.60;;;8.30;99.90;;;;;;5016439;28;20222;-68
2024/02/20 06:38:37;;;;;;;0.40;0.40;;;8.30;99.90;;;;;;4994638;28;20203;-69
2024/02/20 06:41:04;;;;;;;0.50;0.50;;;8.30;99.90;;;;;;5020744;28;20209;-69
2024/02/20 06:43:31;;;;;;;0.60;0.60;;;8.30;99.90;;;;;;5012270;28;20202;-68
2024/02/20 06:46:01;;;;;;;0.40;0.40;;;8.30;99.90;;;;;;5017693;28;20200;-69
2024/02/20 06:48:28;;;;;;;0.50;0.50;;;8.30;99.90;;;;;;4996713;28;20198;-69
2024/02/20 06:50:55;;;;;;;0.43;0.43;;;8.30;99.90;;;;;;5018401;28;20221;-69
2024/02/20 06:53:23;;;;;;;0.57;0.50;;;8.40;99.90;;;;;;5006993;28;20287;-69
2024/02/20 06:55:50;;;;;;;0.50;0.50;;;8.40;99.90;;;;;;5014068;28;20222;-69
2024/02/20 06:58:17;;;;;;;0.50;0.50;;;8.40;99.90;;;;;;5010599;28;20621;-68
2024/02/20 07:00:44;;;;;;;0.57;0.57;;;8.40;99.90;;;;;;4999077;28;20662;-69
2024/02/20 07:03:13;;;;;;;0.50;0.50;;;8.40;99.90;;;;;;5003036;28;20643;-69
2024/02/20 07:05:40;;;;;;;0.83;0.60;;;8.30;99.90;;;;;;5015890;28;20204;-69
2024/02/20 07:08:08;;;;;;;1.63;0.53;;;8.30;99.90;;;;;;5014718;28;20319;-68
2024/02/20 07:10:35;;;;;;;0.77;0.77;;;8.40;99.90;;;;;;4998385;28;20209;-68
2024/02/20 07:13:02;;;;;;;0.60;0.60;;;8.40;99.90;;;;;;5010918;28;20263;-68
2024/02/20 07:15:29;;;;;;;0.50;0.50;;;8.40;99.90;;;;;;5015050;28;20228;-69
2024/02/20 07:17:56;;;;;;;1.40;1.00;;;8.50;99.90;;;;;;5010230;28;20208;-68
2024/02/20 07:20:26;;;;;;;0.60;0.60;;;8.50;99.90;;;;;;5012263;28;20706;-68
2024/02/20 07:22:53;;;;;;;0.90;0.80;;;8.50;99.90;;;;;;5008511;28;20314;-68
2024/02/20 07:25:21;;;;;;;0.70;0.70;;;8.50;99.90;;;;;;5009022;28;20216;-69
2024/02/20 07:27:48;;;;;;;0.57;0.57;;;8.50;99.90;;;;;;5007632;28;21296;-69
2024/02/20 07:30:15;;;;;;;0.77;0.77;;;8.50;99.90;;;;;;5005908;28;20658;-68
2024/02/20 07:32:42;;;;;;;0.80;0.80;;;8.50;99.90;;;;;;5004791;28;20234;-68
2024/02/20 07:35:11;;;;;;;0.60;0.60;;;8.50;99.90;;;;;;5004320;28;20640;-69
2024/02/20 07:37:40;;;;;;;1.50;0.80;;;8.50;99.90;;;;;;5009714;28;20212;-68
2024/02/20 07:40:10;;;;;;;1.63;0.90;;;8.50;99.90;;;;;;5006703;28;20202;-69
2024/02/20 07:42:39;;;;;;;0.80;0.80;;;8.50;99.90;;;;;;5009063;28;20215;-69
2024/02/20 07:45:07;;;;;;;0.50;0.50;;;8.60;99.90;;;;;;5010734;28;20234;-68
2024/02/20 07:47:34;;;;;;;1.67;0.80;;;8.60;99.90;;;;;;5008162;28;20321;-69
2024/02/20 07:50:01;;;;;;;1.13;1.07;;;8.60;99.90;;;;;;5013495;28;20587;-69
2024/02/20 07:52:28;;;;;;;0.70;0.70;;;8.60;99.90;;;;;;5006225;28;20482;-68
2024/02/20 07:54:57;;;;;;;0.70;0.70;;;8.60;99.90;;;;;;5007674;28;20205;-68
2024/02/20 07:57:24;;;;;;;1.27;0.80;;;8.70;99.90;;;;;;5011379;28;20194;-69
2024/02/20 07:59:51;;;;;;;3.00;1.10;;;8.70;99.90;;;;;;5006699;28;20195;-69
2024/02/20 08:02:18;;;;;;;1.10;1.10;;;8.70;99.90;;;;;;5015763;28;20254;-69
2024/02/20 08:04:46;;;;;;;0.83;0.83;;;8.70;99.90;;;;;;5008059;28;20602;-69
2024/02/20 08:07:13;;;;;;;0.83;0.83;;;8.70;99.90;;;;;;5009492;28;20192;-69
2024/02/20 08:09:40;;;;;;;0.83;0.80;;;8.70;99.90;;;;;;5007630;28;20211;-69
2024/02/20 08:12:11;;;;;;;0.70;0.70;;;8.70;99.90;;;;;;5004735;28;20203;-69
2024/02/20 08:14:38;;;;;;;0.70;0.70;;;8.70;99.90;;;;;;5008393;28;20302;-69
2024/02/20 08:17:06;;;;;;;0.50;0.50;;;8.70;99.90;;;;;;5009727;28;20212;-70
2024/02/20 08:19:33;;;;;;;0.77;0.70;;;8.70;99.90;;;;;;5008497;28;20672;-69
2024/02/20 08:22:00;;;;;;;0.97;0.80;;;8.70;99.90;;;;;;5010687;28;20223;-69
2024/02/20 08:24:27;;;;;;;0.63;0.63;;;8.70;99.90;;;;;;5008984;28;20737;-69
2024/02/20 08:26:57;;;;;;;0.57;0.57;;;8.70;99.90;;;;;;5011772;28;20203;-69
2024/02/20 08:29:27;;;;;;;0.47;0.47;;;8.70;99.90;;;;;;4975103;28;20207;-69
2024/02/20 08:31:55;;;;;;;0.60;0.60;;;8.70;99.90;;;;;;5011096;28;20531;-69
2024/02/20 08:34:22;;;;;;;0.60;0.50;;;8.70;99.90;;;;;;5000390;28;20199;-68
2024/02/20 08:36:49;;;;;;;0.53;0.53;;;8.70;99.90;;;;;;5000524;28;20726;-68
2024/02/20 08:39:16;;;;;;;0.67;0.60;;;8.80;99.90;;;;;;4999962;28;20263;-68
2024/02/20 08:41:44;;;;;;;0.50;0.50;;;8.80;99.90;;;;;;5015129;28;20221;-68
2024/02/20 08:44:11;;;;;;;0.50;0.50;;;8.80;99.90;;;;;;4987884;28;20247;-68
2024/02/20 08:46:39;;;;;;;0.50;0.50;;;8.80;99.90;;;;;;5020689;28;20257;-69
2024/02/20 08:49:06;;;;;;;0.60;0.60;;;8.90;99.90;;;;;;5004428;28;20231;-69
2024/02/20 08:51:34;;;;;;;0.40;0.40;;;8.90;99.90;;;;;;5010048;28;20207;-69
2024/02/20 08:54:01;;;;;;;0.97;0.80;;;8.90;99.90;;;;;;5002473;28;22037;-68
2024/02/20 08:56:28;;;;;;;0.60;0.60;;;9.00;99.90;;;;;;5001018;28;20197;-69
2024/02/20 08:58:55;;;;;;;0.57;0.57;;;9.00;99.90;;;;;;5009529;28;20268;-68
2024/02/20 09:01:24;;;;;;;0.50;0.50;;;9.00;99.90;;;;;;5012023;28;20194;-69
2024/02/20 09:03:54;;;;;;;0.93;0.83;;;9.00;99.90;;;;;;5016071;28;20243;-69
2024/02/20 09:06:21;;;;;;;1.07;0.80;;;9.10;99.90;;;;;;5011592;28;20273;-67
2024/02/20 09:08:49;;;;;;;0.50;0.50;;;9.10;99.90;;;;;;5002757;28;20681;-68
2024/02/20 09:11:16;;;;;;;0.70;0.70;;;9.10;99.90;;;;;;5009653;28;20280;-69
2024/02/20 09:13:44;;;;;;;0.57;0.57;;;9.20;99.90;;;;;;5003980;28;20863;-68
2024/02/20 09:16:14;;;;;;;0.57;0.57;;;9.20;99.90;;;;;;5016141;28;20206;-69
2024/02/20 09:18:41;;;;;;;0.50;0.50;;;9.30;99.90;;;;;;5025320;28;20184;-69
2024/02/20 09:21:09;;;;;;;0.50;0.50;;;9.30;99.90;;;;;;5039628;28;20192;-68
2024/02/20 09:23:37;;;;;;;0.40;0.40;;;9.50;99.90;;;;;;5032792;28;20216;-68
2024/02/20 09:26:05;;;;;;;0.80;0.80;;;9.70;99.90;;;;;;5001134;28;20248;-68
2024/02/20 09:28:33;;;;;;;0.63;0.63;;;9.80;99.90;;;;;;5008203;28;20251;-68
2024/02/20 09:31:00;;;;;;;0.63;0.63;;;9.80;99.90;;;;;;4997148;28;20213;-69
2024/02/20 09:33:27;;;;;;;1.17;1.00;;;9.80;99.90;;;;;;4990563;28;20231;-69
2024/02/20 09:35:54;;;;;;;0.80;0.80;;;9.80;99.90;;;;;;5011872;28;20289;-69
2024/02/20 09:38:23;;;;;;;1.17;1.10;;;9.80;99.90;;;;;;5009365;28;20213;-69
2024/02/20 09:40:50;;;;;;;1.10;1.00;;;9.80;99.90;;;;;;5006378;28;20199;-68
2024/02/20 09:43:19;;;;;;;1.33;0.90;;;9.80;99.90;;;;;;5013118;28;20303;-67
2024/02/20 09:45:47;;;;;;;1.67;0.90;;;9.80;99.90;;;;;;4993957;28;20210;-68
2024/02/20 09:48:15;;;;;;;0.80;0.80;;;9.70;99.90;;;;;;4999848;28;20198;-69
2024/02/20 09:50:44;;;;;;;0.70;0.70;;;9.70;99.90;;;;;;5011907;28;20282;-69
2024/02/20 09:53:13;;;;;;;0.80;0.80;;;9.90;99.90;;;;;;5014438;28;20195;-69
2024/02/20 09:55:42;;;;;;;0.70;0.70;;;10.10;99.90;;;;;;4992448;28;20333;-68
2024/02/20 09:58:09;;;;;;;0.80;0.80;;;10.20;99.90;;;;;;5009886;28;20199;-69
2024/02/20 10:00:37;;;;;;;0.90;0.90;;;10.30;99.90;;;;;;4994176;28;20721;-68
2024/02/20 10:03:05;;;;;;;0.60;0.60;;;10.40;99.90;;;;;;5010064;28;20260;-67
2024/02/20 10:05:33;;;;;;;2.43;0.80;;;10.40;99.90;;;;;;5009579;28;20237;-68
2024/02/20 10:08:03;;;;;;;0.70;0.70;;;10.30;99.90;;;;;;5017561;28;20203;-68
2024/02/20 10:10:33;;;;;;;0.80;0.80;;;10.40;99.90;;;;;;5010817;28;20201;-67
2024/02/20 10:13:03;;;;;;;0.70;0.70;;;10.40;99.90;;;;;;5008279;28;21017;-67
2024/02/20 10:15:31;;;;;;;1.00;0.90;;;10.40;99.90;;;;;;5011766;28;20295;-68
2024/02/20 10:18:00;;;;;;;0.70;0.70;;;10.40;99.90;;;;;;5010492;28;20667;-68
2024/02/20 10:20:27;;;;;;;1.30;0.90;;;10.60;99.90;;;;;;4995997;28;20292;-68
2024/02/20 10:23:04;;;;;;;0.83;0.80;;;10.70;99.90;;;;;;5010736;28;20753;-67
2024/02/20 10:25:31;;;;;;;1.27;0.60;;;10.80;99.90;;;;;;5005694;28;20289;-69
2024/02/20 10:27:59;;;;;;;0.83;0.83;;;11.10;99.90;;;;;;5013477;28;20286;-68
2024/02/20 10:30:27;;;;;;;0.60;0.60;;;11.40;99.90;;;;;;5019871;28;20202;-67
2024/02/20 10:32:54;;;;;;;0.70;0.70;;;11.30;99.90;;;;;;5029203;28;20578;-69
2024/02/20 10:35:23;;;;;;;0.80;0.80;;;11.20;99.90;;;;;;5006850;28;20207;-68
2024/02/20 10:38:01;;;;;;;0.80;0.80;;;11.00;99.90;;;;;;5015960;28;20688;-68
2024/02/20 10:40:32;;;;;;;0.77;0.70;;;10.80;99.90;;;;;;5021231;28;20203;-69
2024/02/20 10:42:59;;;;;;;0.87;0.87;;;10.70;99.90;;;;;;5014928;28;20201;-68
2024/02/20 10:45:28;;;;;;;0.93;0.80;;;10.50;99.90;;;;;;5008675;28;20226;-69
2024/02/20 10:47:56;;;;;;;1.63;0.80;;;10.40;99.90;;;;;;5012230;28;20199;-69
2024/02/20 10:50:24;;;;;;;0.87;0.87;;;10.30;99.90;;;;;;5019917;28;20290;-69
2024/02/20 10:52:54;;;;;;;0.90;0.83;;;10.20;99.90;;;;;;5015054;28;20186;-68
2024/02/20 10:55:21;;;;;;;1.10;0.70;;;10.20;99.90;;;;;;5008688;28;20287;-69
2024/02/20 10:57:50;;;;;;;1.30;1.00;;;10.10;99.90;;;;;;5011571;28;20213;-69
2024/02/20 11:00:18;;;;;;;1.17;0.93;;;10.10;99.90;;;;;;5002788;28;20201;-69
2024/02/20 11:02:49;;;;;;;1.13;0.70;;;10.10;99.90;;;;;;5011518;28;20251;-68
2024/02/20 11:05:17;;;;;;;1.93;0.90;;;10.00;99.90;;;;;;5003549;28;20281;-67
2024/02/20 11:07:45;;;;;;;1.17;0.90;;;10.00;99.90;;;;;;4993572;28;20298;-68
2024/02/20 11:10:17;;;;;;;1.20;1.00;;;10.00;99.90;;;;;;5005049;28;20204;-69
2024/02/20 11:12:45;;;;;;;1.17;1.00;;;10.00;99.90;;;;;;5008975;28;20561;-69
2024/02/20 11:15:20;;;;;;;1.00;0.80;;;9.90;99.90;;;;;;5004260;28;20291;-69
2024/02/20 11:17:50;;;;;;;0.90;0.90;;;10.00;99.90;;;;;;5004154;28;20634;-69
2024/02/20 11:20:19;;;;;;;0.90;0.90;;;10.00;99.90;;;;;;5000298;28;20198;-68
2024/02/20 11:22:48;;;;;;;2.23;1.10;;;10.00;99.90;;;;;;4992106;28;21035;-69
2024/02/20 11:25:28;;;;;;;1.20;1.10;;;10.00;99.90;;;;;;5006088;28;20218;-69
2024/02/20 11:27:56;;;;;;;2.83;1.20;;;10.10;99.90;;;;;;4993332;28;20218;-68
2024/02/20 11:30:25;;;;;;;1.10;1.00;;;10.00;99.90;;;;;;4990942;28;20193;-69
2024/02/20 11:32:54;;;;;;;1.20;1.10;;;10.00;99.90;;;;;;5009820;28;20276;-68
2024/02/20 11:35:24;;;;;;;1.67;1.33;;;9.90;99.90;;;;;;5005158;28;20200;-68
2024/02/20 11:37:55;;;;;;;1.40;1.10;;;9.90;99.90;;;;;;5019459;28;20194;-68
2024/02/20 11:40:27;;;;;;;1.30;1.20;;;9.90;99.90;;;;;;5016774;28;20297;-68
2024/02/20 11:42:55;;;;;;;1.33;1.10;;;9.90;99.90;;;;;;5010780;28;20668;-68
2024/02/20 11:45:24;;;;;;;1.37;1.27;;;9.90;99.90;;;;;;5007119;28;20191;-68
2024/02/20 11:48:06;;;;;;;1.30;1.23;;;9.90;99.90;;;;;;5008637;28;20265;-68
2024/02/20 11:50:36;;;;;;;1.53;1.23;;;9.90;99.90;;;;;;5008402;28;20233;-68
2024/02/20 11:53:05;;;;;;;1.53;1.23;;;9.90;99.90;;;;;;5008802;28;20219;-69
2024/02/20 11:55:33;;;;;;;1.27;1.10;;;9.90;99.90;;;;;;5010710;28;20198;-69
2024/02/20 11:58:01;;;;;;;2.03;1.00;;;9.90;99.90;;;;;;5008188;28;20283;-69
2024/02/20 12:00:29;;;;;;;1.00;0.90;;;9.90;99.90;;;;;;5010285;28;20210;-68
2024/02/20 12:02:56;;;;;;;0.77;0.77;;;9.90;99.90;;;;;;5008850;28;20345;-67
2024/02/20 12:05:29;;;;;;;1.27;1.03;;;9.90;99.90;;;;;;5009681;28;20285;-69
2024/02/20 12:07:57;;;;;;;0.50;0.50;;;9.80;99.90;;;;;;5006044;28;20211;-69
2024/02/20 12:10:35;;;;;;;0.70;0.70;;;9.80;99.90;;;;;;5000783;28;20203;-69
2024/02/20 12:13:15;;;;;;;0.70;0.70;;;9.80;99.90;;;;;;5004292;28;20194;-69
2024/02/20 12:15:43;;;;;;;1.13;0.90;;;9.80;99.90;;;;;;5005282;28;20197;-68
2024/02/20 12:18:10;;;;;;;0.80;0.80;;;9.80;99.90;;;;;;5004258;28;20209;-68
2024/02/20 12:20:41;;;;;;;0.90;0.90;;;9.80;99.90;;;;;;5000375;28;20293;-68
2024/02/20 12:23:08;;;;;;;0.80;0.80;;;9.90;99.90;;;;;;4989322;28;20855;-68
2024/02/20 12:25:35;;;;;;;1.13;0.90;;;9.90;99.90;;;;;;4987462;28;20207;-70
2024/02/20 12:28:02;;;;;;;0.80;0.80;;;10.00;99.90;;;;;;5006465;28;20203;-69
2024/02/20 12:30:29;;;;;;;0.80;0.80;;;10.10;99.90;;;;;;5005059;28;20229;-68
2024/02/20 12:32:56;;;;;;;0.80;0.80;;;10.10;99.90;;;;;;4991129;28;20214;-69
2024/02/20 12:35:23;;;;;;;0.80;0.80;;;10.00;99.90;;;;;;5018753;28;20518;-69
2024/02/20 12:37:52;;;;;;;1.20;0.90;;;10.00;99.90;;;;;;5007778;28;20234;-69
2024/02/20 12:40:20;;;;;;;2.57;0.90;;;10.00;99.90;;;;;;5012832;28;20555;-67
2024/02/20 12:42:55;;;;;;;2.13;1.17;;;10.00;99.90;;;;;;5008753;28;20194;-69
2024/02/20 12:45:22;;;;;;;1.43;1.00;;;9.90;99.90;;;;;;5015061;28;20192;-68
2024/02/20 12:47:50;;;;;;;1.03;0.80;;;9.90;99.90;;;;;;5007870;28;20587;-68
2024/02/20 12:50:17;;;;;;;0.90;0.90;;;9.90;99.90;;;;;;5015908;28;20268;-67
2024/02/20 12:52:44;;;;;;;1.10;1.00;;;9.80;99.90;;;;;;5007603;28;20202;-70
2024/02/20 12:55:13;;;;;;;0.90;0.70;;;9.80;99.90;;;;;;5005152;28;20196;-69
2024/02/20 12:57:41;;;;;;;1.80;0.70;;;9.80;99.90;;;;;;5007427;28;20201;-70